Time;durP1;ratioP1;P1;durP2;ratioP2;P2;SDS_P1;SDS_P2;PMS_P1;PMS_P2;Temp;Humidity;BMP_temperature;BMP_pressure;BME280_temperature;BME280_humidity;BME280_pressure;Samples;Min_cycle;Max_cycle;Signal;HPM_P1;HPM_P2
2022/03/29 00:00:13;;;;;;;26.80;13.55;;;7.10;95.40;;;;;;5092815;27;20082;-66
2022/03/29 00:02:40;;;;;;;29.98;14.70;;;7.10;95.50;;;;;;5076808;28;20035;-65
2022/03/29 00:05:06;;;;;;;25.15;14.60;;;7.10;95.50;;;;;;5109826;28;20406;-66
2022/03/29 00:07:31;;;;;;;29.98;14.75;;;7.10;95.50;;;;;;5076622;28;20130;-66
2022/03/29 00:09:57;;;;;;;30.85;14.50;;;7.10;95.60;;;;;;5097307;28;20038;-66
2022/03/29 00:12:22;;;;;;;28.10;15.23;;;7.10;95.60;;;;;;5081975;28;20051;-66
2022/03/29 00:14:48;;;;;;;31.00;15.30;;;7.10;95.60;;;;;;5101272;28;20043;-65
2022/03/29 00:17:13;;;;;;;27.80;14.93;;;7.10;95.70;;;;;;5105413;28;20039;-66
2022/03/29 00:19:39;;;;;;;29.63;15.80;;;7.10;95.80;;;;;;5101539;28;20035;-66
2022/03/29 00:22:04;;;;;;;34.85;16.55;;;7.10;95.90;;;;;;5105301;28;20111;-66
2022/03/29 00:24:30;;;;;;;30.80;15.18;;;7.00;96.40;;;;;;5090641;28;20154;-66
2022/03/29 00:26:55;;;;;;;28.83;15.68;;;7.10;96.30;;;;;;5095835;28;20048;-66
2022/03/29 00:29:21;;;;;;;31.73;16.00;;;7.00;96.40;;;;;;5077851;28;20039;-66
2022/03/29 00:31:46;;;;;;;30.58;15.50;;;7.00;96.40;;;;;;5101844;28;20364;-66
2022/03/29 00:34:12;;;;;;;29.30;14.80;;;7.00;96.50;;;;;;5101586;28;20479;-66
2022/03/29 00:36:37;;;;;;;28.67;15.93;;;7.00;96.50;;;;;;5118681;28;20420;-65
2022/03/29 00:39:03;;;;;;;29.92;15.45;;;7.00;96.70;;;;;;5100457;28;20054;-65
2022/03/29 00:41:29;;;;;;;25.42;14.70;;;7.10;96.80;;;;;;5080337;28;20039;-66
2022/03/29 00:43:54;;;;;;;28.85;14.77;;;7.10;96.60;;;;;;5098819;28;20031;-66
2022/03/29 00:46:20;;;;;;;30.52;14.93;;;7.10;96.60;;;;;;5096186;28;20229;-65
2022/03/29 00:48:46;;;;;;;29.70;14.20;;;7.10;96.50;;;;;;5085092;27;20032;-65
2022/03/29 00:51:12;;;;;;;31.40;15.50;;;7.20;96.50;;;;;;5111742;27;20038;-66
2022/03/29 00:53:38;;;;;;;26.77;14.25;;;7.20;96.40;;;;;;5103784;28;20039;-65
2022/03/29 00:56:04;;;;;;;27.17;14.40;;;7.10;96.40;;;;;;5099030;27;20493;-66
2022/03/29 00:58:30;;;;;;;27.15;14.48;;;7.10;96.40;;;;;;5101888;27;20031;-66
2022/03/29 01:00:58;;;;;;;33.13;15.52;;;7.10;96.40;;;;;;5104320;27;20095;-66
2022/03/29 01:03:24;;;;;;;26.75;14.07;;;7.20;96.40;;;;;;5101598;27;20035;-66
2022/03/29 01:05:50;;;;;;;28.90;14.93;;;7.20;96.40;;;;;;5099052;27;20043;-66
2022/03/29 01:08:15;;;;;;;29.52;14.68;;;7.20;96.40;;;;;;5090161;27;20054;-66
2022/03/29 01:10:44;;;;;;;32.00;14.98;;;7.20;96.50;;;;;;5100190;28;20119;-66
2022/03/29 01:13:09;;;;;;;28.48;15.13;;;7.20;96.50;;;;;;5098318;27;20066;-66
2022/03/29 01:15:37;;;;;;;30.75;15.93;;;7.10;96.50;;;;;;5112151;27;20047;-66
2022/03/29 01:18:05;;;;;;;32.75;14.35;;;7.10;96.50;;;;;;5078115;27;20035;-66
2022/03/29 01:20:32;;;;;;;29.63;14.20;;;7.10;96.60;;;;;;5099559;28;20189;-65
2022/03/29 01:23:01;;;;;;;32.17;15.27;;;7.10;96.90;;;;;;5107449;28;20040;-66
2022/03/29 01:25:30;;;;;;;34.00;16.17;;;7.00;96.80;;;;;;5089013;28;20352;-66
2022/03/29 01:27:56;;;;;;;29.77;15.50;;;7.00;96.70;;;;;;5101621;28;20036;-66
2022/03/29 01:30:22;;;;;;;28.27;14.55;;;7.00;96.70;;;;;;5096793;28;20123;-66
2022/03/29 01:32:52;;;;;;;28.98;14.30;;;7.00;96.70;;;;;;5106091;28;20467;-68
2022/03/29 01:35:21;;;;;;;34.10;15.80;;;7.10;96.60;;;;;;5086075;28;20111;-66
2022/03/29 01:37:48;;;;;;;32.70;14.90;;;7.00;96.50;;;;;;5118380;27;20127;-66
2022/03/29 01:40:19;;;;;;;29.77;13.65;;;7.00;96.50;;;;;;5092028;28;20123;-66
2022/03/29 01:42:51;;;;;;;32.17;14.85;;;7.00;96.40;;;;;;5082901;28;20058;-66
2022/03/29 01:45:17;;;;;;;28.73;15.32;;;7.00;96.50;;;;;;5089850;28;20135;-66
2022/03/29 01:47:43;;;;;;;30.25;14.90;;;6.90;96.50;;;;;;5100241;28;20051;-66
2022/03/29 01:50:12;;;;;;;30.20;15.27;;;6.90;96.50;;;;;;5086964;28;20096;-65
2022/03/29 01:52:45;;;;;;;32.83;16.15;;;6.90;96.60;;;;;;5090067;28;20086;-66
2022/03/29 01:55:12;;;;;;;31.83;16.08;;;6.80;96.70;;;;;;5096212;28;20075;-66
2022/03/29 01:57:38;;;;;;;28.60;14.77;;;6.80;96.60;;;;;;5094546;28;20051;-66
2022/03/29 02:02:50;;;;;;;30.27;14.65;;;6.80;96.90;;;;;;5092255;28;20044;-66
2022/03/29 02:05:16;;;;;;;33.53;15.15;;;6.80;96.90;;;;;;5102274;28;20027;-66
2022/03/29 02:07:41;;;;;;;35.95;15.25;;;6.80;97.00;;;;;;5105137;28;20486;-66
2022/03/29 02:10:07;;;;;;;28.38;15.02;;;6.80;97.10;;;;;;5091331;28;20040;-66
2022/03/29 02:12:34;;;;;;;31.45;15.18;;;6.80;97.20;;;;;;5099450;28;20043;-66
2022/03/29 02:14:59;;;;;;;35.55;16.88;;;6.80;97.30;;;;;;5097708;28;20039;-67
2022/03/29 02:17:25;;;;;;;33.28;16.02;;;6.70;97.30;;;;;;5092806;28;20130;-66
2022/03/29 02:19:51;;;;;;;39.08;16.77;;;6.70;97.40;;;;;;5093075;27;20128;-66
2022/03/29 02:22:16;;;;;;;27.08;14.23;;;6.70;97.50;;;;;;5100018;27;20125;-66
2022/03/29 02:24:42;;;;;;;33.85;15.18;;;6.70;97.60;;;;;;5102545;27;20560;-66
2022/03/29 02:27:08;;;;;;;31.55;14.70;;;6.70;97.60;;;;;;5089293;27;20031;-65
2022/03/29 02:29:34;;;;;;;29.63;14.40;;;6.80;97.60;;;;;;5092333;27;20027;-65
2022/03/29 02:32:00;;;;;;;27.27;14.73;;;6.80;97.80;;;;;;5095486;27;20054;-66
2022/03/29 02:34:25;;;;;;;32.40;15.77;;;6.90;97.80;;;;;;5100798;27;20126;-66
2022/03/29 02:36:51;;;;;;;31.67;15.30;;;6.90;97.80;;;;;;5102335;28;20126;-66
2022/03/29 02:39:16;;;;;;;32.08;16.63;;;6.90;97.80;;;;;;5124508;27;20078;-66
2022/03/29 02:41:42;;;;;;;29.55;16.25;;;6.90;97.70;;;;;;5103060;27;20039;-66
2022/03/29 02:44:08;;;;;;;34.50;15.88;;;6.90;97.80;;;;;;5096716;27;20481;-66
2022/03/29 02:46:34;;;;;;;33.50;16.27;;;6.90;97.80;;;;;;5103112;27;20031;-66
2022/03/29 02:49:01;;;;;;;30.83;15.10;;;6.90;97.70;;;;;;5099755;27;20026;-66
2022/03/29 02:51:26;;;;;;;30.90;16.08;;;6.90;97.90;;;;;;5104880;27;20038;-66
2022/03/29 02:53:52;;;;;;;30.95;15.13;;;7.00;97.80;;;;;;5101300;27;20047;-66
2022/03/29 02:56:18;;;;;;;32.97;16.45;;;7.00;97.60;;;;;;5100004;28;20059;-66
2022/03/29 02:58:44;;;;;;;31.58;15.93;;;7.00;97.50;;;;;;5102150;28;20548;-66
2022/03/29 03:01:09;;;;;;;34.22;15.85;;;7.00;97.50;;;;;;5105455;27;20381;-66
2022/03/29 03:03:35;;;;;;;32.80;15.48;;;7.00;97.40;;;;;;5098487;27;20054;-66
2022/03/29 03:06:00;;;;;;;36.22;16.02;;;7.00;97.40;;;;;;5085001;27;20035;-66
2022/03/29 03:08:27;;;;;;;33.17;15.30;;;7.00;97.30;;;;;;5086247;27;20110;-66
2022/03/29 03:10:53;;;;;;;34.10;15.48;;;7.00;97.40;;;;;;5115481;27;20777;-65
2022/03/29 03:13:18;;;;;;;33.38;16.02;;;7.00;97.40;;;;;;5090786;27;20095;-66
2022/03/29 03:15:44;;;;;;;37.97;17.30;;;7.10;97.30;;;;;;5113334;27;20035;-65
2022/03/29 03:18:10;;;;;;;37.58;17.00;;;7.10;97.30;;;;;;5103200;27;20124;-66
2022/03/29 03:20:36;;;;;;;36.15;17.38;;;7.00;97.10;;;;;;5107837;27;20134;-65
2022/03/29 03:23:02;;;;;;;33.10;16.30;;;7.10;97.20;;;;;;5109790;27;20070;-66
2022/03/29 03:25:27;;;;;;;38.92;17.60;;;7.00;97.10;;;;;;5109237;27;20100;-65
2022/03/29 03:27:53;;;;;;;35.53;17.17;;;7.10;97.10;;;;;;5101254;27;21333;-66
2022/03/29 03:30:19;;;;;;;37.65;16.77;;;7.00;96.90;;;;;;5099566;28;20027;-66
2022/03/29 03:32:45;;;;;;;36.10;17.50;;;7.00;96.90;;;;;;5101323;28;20501;-66
2022/03/29 03:35:11;;;;;;;38.83;17.08;;;7.00;96.90;;;;;;5101462;27;20075;-66
2022/03/29 03:37:37;;;;;;;40.35;17.65;;;7.00;96.90;;;;;;5099975;27;20488;-66
2022/03/29 03:40:04;;;;;;;39.28;18.02;;;7.00;96.90;;;;;;5109874;27;20039;-66
2022/03/29 03:42:30;;;;;;;43.22;18.08;;;7.00;96.90;;;;;;5097372;27;20032;-66
2022/03/29 03:44:58;;;;;;;35.30;18.25;;;7.00;96.90;;;;;;5104708;28;20660;-65
2022/03/29 03:47:25;;;;;;;40.80;19.00;;;7.00;97.00;;;;;;5104144;27;20114;-65
2022/03/29 03:49:50;;;;;;;37.15;17.95;;;7.00;96.90;;;;;;5105803;27;20032;-66
2022/03/29 03:52:16;;;;;;;36.20;18.42;;;7.00;96.90;;;;;;5078908;28;20085;-66
2022/03/29 03:54:41;;;;;;;40.80;18.13;;;7.00;96.90;;;;;;5103311;27;20034;-66
2022/03/29 03:57:07;;;;;;;40.50;17.88;;;6.90;97.00;;;;;;5084307;28;20035;-66
2022/03/29 03:59:33;;;;;;;38.08;18.42;;;6.90;97.10;;;;;;5099890;27;20031;-65
2022/03/29 04:02:00;;;;;;;38.65;17.58;;;7.00;97.10;;;;;;5106713;28;20037;-66
2022/03/29 04:04:25;;;;;;;41.33;18.90;;;7.00;97.20;;;;;;5104402;28;20035;-66
2022/03/29 04:06:51;;;;;;;38.35;18.17;;;6.90;97.10;;;;;;5098877;28;20031;-66
2022/03/29 04:09:17;;;;;;;40.85;18.63;;;7.00;97.10;;;;;;5113888;28;20028;-65
2022/03/29 04:11:43;;;;;;;41.88;18.85;;;7.00;97.10;;;;;;5097611;28;20343;-65
2022/03/29 04:14:09;;;;;;;42.83;19.52;;;7.00;97.10;;;;;;5099756;28;20554;-65
2022/03/29 04:16:35;;;;;;;37.22;18.38;;;7.00;97.10;;;;;;5097942;28;20067;-66
2022/03/29 04:19:01;;;;;;;35.72;17.95;;;7.00;97.10;;;;;;5101153;28;20077;-66
2022/03/29 04:21:27;;;;;;;38.22;18.55;;;7.00;97.10;;;;;;5105071;28;20475;-65
2022/03/29 04:23:53;;;;;;;41.03;18.45;;;7.00;97.10;;;;;;5095109;27;20067;-66
2022/03/29 04:26:19;;;;;;;41.80;19.73;;;7.00;97.20;;;;;;5104998;27;20031;-65
2022/03/29 04:28:44;;;;;;;39.92;18.50;;;7.00;97.00;;;;;;5094894;27;20059;-65
2022/03/29 04:31:10;;;;;;;46.78;19.45;;;7.00;97.10;;;;;;5106472;27;20031;-66
2022/03/29 04:33:36;;;;;;;44.78;20.10;;;7.00;97.20;;;;;;5109216;27;20039;-66
2022/03/29 04:36:02;;;;;;;35.80;18.52;;;7.00;97.10;;;;;;5100145;27;20046;-66
2022/03/29 04:38:28;;;;;;;40.05;19.13;;;7.00;97.10;;;;;;5106541;27;20039;-66
2022/03/29 04:40:54;;;;;;;40.00;18.85;;;7.00;97.00;;;;;;5106761;27;20031;-66
2022/03/29 04:43:20;;;;;;;39.03;18.40;;;7.00;96.90;;;;;;5109085;27;20496;-65
2022/03/29 04:45:45;;;;;;;35.65;18.85;;;7.00;96.90;;;;;;5110398;27;20047;-66
2022/03/29 04:48:12;;;;;;;41.83;19.25;;;7.00;96.90;;;;;;5106774;27;20039;-65
2022/03/29 04:50:38;;;;;;;40.83;18.77;;;7.00;97.00;;;;;;5113711;27;20047;-66
2022/03/29 04:53:04;;;;;;;41.13;18.25;;;7.00;97.00;;;;;;5103748;27;20100;-65
2022/03/29 04:55:30;;;;;;;43.85;19.45;;;7.00;97.10;;;;;;5091781;27;20031;-66
2022/03/29 04:57:56;;;;;;;39.92;17.70;;;7.00;97.20;;;;;;5105580;27;20403;-66
2022/03/29 05:00:22;;;;;;;35.38;17.15;;;6.90;97.20;;;;;;5096079;27;20043;-66
2022/03/29 05:02:48;;;;;;;36.70;18.60;;;6.90;97.20;;;;;;5107299;27;20039;-65
2022/03/29 05:05:14;;;;;;;42.15;18.30;;;6.90;97.20;;;;;;5119113;27;20040;-65
2022/03/29 05:07:41;;;;;;;46.03;19.95;;;7.00;97.20;;;;;;5118809;27;20042;-65
2022/03/29 05:10:08;;;;;;;45.05;19.02;;;6.90;97.20;;;;;;5101363;27;20046;-66
2022/03/29 05:12:51;;;;;;;44.30;19.15;;;7.00;97.20;;;;;;5099764;27;20133;-66
2022/03/29 05:15:19;;;;;;;40.90;18.35;;;6.90;97.30;;;;;;5100762;27;20068;-66
2022/03/29 05:17:45;;;;;;;37.85;17.80;;;6.90;97.20;;;;;;5105491;28;20032;-66
2022/03/29 05:20:12;;;;;;;45.35;20.42;;;7.00;97.20;;;;;;5108463;27;20055;-66
2022/03/29 05:22:46;;;;;;;36.80;19.02;;;6.90;97.20;;;;;;5091892;28;20670;-66
2022/03/29 05:25:17;;;;;;;42.22;19.40;;;6.90;97.30;;;;;;5101569;28;20046;-66
2022/03/29 05:27:43;;;;;;;39.50;19.23;;;6.90;97.40;;;;;;5115756;27;20036;-66
2022/03/29 05:30:10;;;;;;;41.65;20.20;;;6.90;97.40;;;;;;5106191;28;20474;-66
2022/03/29 05:32:36;;;;;;;40.05;18.13;;;6.90;97.50;;;;;;5089099;28;20050;-67
2022/03/29 05:35:03;;;;;;;43.05;18.70;;;6.90;97.60;;;;;;5127298;28;20043;-66
2022/03/29 05:37:28;;;;;;;41.28;19.65;;;6.90;97.60;;;;;;5123436;27;20047;-66
2022/03/29 05:39:54;;;;;;;44.03;19.65;;;6.90;97.70;;;;;;5105304;28;20046;-66
2022/03/29 05:42:21;;;;;;;45.42;20.25;;;6.80;97.70;;;;;;5107224;28;20490;-66
2022/03/29 05:44:46;;;;;;;47.33;19.63;;;6.80;97.70;;;;;;5102641;28;20035;-66
2022/03/29 05:49:57;;;;;;;44.45;20.60;;;6.90;97.70;;;;;;5108304;28;20051;-66
2022/03/29 05:52:23;;;;;;;41.30;19.55;;;6.90;97.60;;;;;;5122011;27;20038;-66
2022/03/29 05:54:49;;;;;;;41.72;18.77;;;6.90;97.60;;;;;;5097148;28;20404;-66
2022/03/29 05:57:15;;;;;;;38.85;19.95;;;6.90;97.50;;;;;;5111126;28;20046;-66
2022/03/29 05:59:41;;;;;;;43.95;18.73;;;7.00;97.60;;;;;;5081874;28;20046;-66
2022/03/29 06:02:08;;;;;;;45.58;19.70;;;7.00;97.50;;;;;;5109953;28;20532;-66
2022/03/29 06:04:37;;;;;;;43.38;19.38;;;7.00;97.50;;;;;;5088483;28;20301;-66
2022/03/29 06:07:07;;;;;;;41.85;19.85;;;7.00;97.50;;;;;;5095165;28;20047;-66
2022/03/29 06:09:34;;;;;;;44.30;20.30;;;6.90;97.70;;;;;;5094047;28;20036;-66
2022/03/29 06:12:00;;;;;;;43.58;18.83;;;7.00;97.60;;;;;;5101784;28;20457;-66
2022/03/29 06:14:26;;;;;;;41.70;19.33;;;7.10;97.60;;;;;;5096542;28;20462;-66
2022/03/29 06:16:51;;;;;;;47.13;19.48;;;7.10;97.50;;;;;;5102847;28;20036;-66
2022/03/29 06:19:17;;;;;;;47.42;20.38;;;7.10;97.50;;;;;;5128457;28;20507;-66
2022/03/29 06:21:43;;;;;;;38.70;19.50;;;7.10;97.50;;;;;;5044029;27;1020894;-67
2022/03/29 06:24:10;;;;;;;46.03;20.05;;;7.10;97.50;;;;;;5103565;27;20522;-66
2022/03/29 06:26:37;;;;;;;39.00;18.23;;;7.20;97.40;;;;;;5089089;28;20096;-66
2022/03/29 06:29:07;;;;;;;42.83;19.23;;;7.30;97.30;;;;;;5105428;27;20088;-66
2022/03/29 06:31:32;;;;;;;39.25;18.98;;;7.30;97.20;;;;;;5100053;27;20027;-66
2022/03/29 06:33:58;;;;;;;45.95;18.92;;;7.30;97.10;;;;;;5102100;28;20035;-66
2022/03/29 06:36:25;;;;;;;45.30;19.27;;;7.30;97.10;;;;;;5092198;27;20054;-67
2022/03/29 06:38:51;;;;;;;43.95;19.38;;;7.30;97.10;;;;;;5111155;27;20443;-67
2022/03/29 06:41:16;;;;;;;40.80;19.15;;;7.30;97.00;;;;;;5091108;28;20133;-66
2022/03/29 06:43:42;;;;;;;45.20;19.15;;;7.30;97.00;;;;;;5100400;27;20659;-66
2022/03/29 06:46:09;;;;;;;39.50;19.30;;;7.30;96.90;;;;;;5102852;27;20050;-67
2022/03/29 06:48:41;;;;;;;45.47;18.98;;;7.30;96.90;;;;;;5097777;27;20484;-66
2022/03/29 06:51:09;;;;;;;43.30;18.88;;;7.40;96.80;;;;;;5091471;28;20096;-66
2022/03/29 06:53:38;;;;;;;41.38;18.58;;;7.40;96.80;;;;;;5091074;28;20757;-66
2022/03/29 06:56:04;;;;;;;42.15;17.90;;;7.40;96.50;;;;;;5100599;28;20673;-66
2022/03/29 06:58:30;;;;;;;40.47;19.50;;;7.50;96.30;;;;;;5110578;27;20070;-66
2022/03/29 07:00:56;;;;;;;41.72;19.40;;;7.60;96.30;;;;;;5098078;27;20067;-65
2022/03/29 07:03:23;;;;;;;37.00;18.02;;;7.60;96.00;;;;;;5105059;27;20035;-65
2022/03/29 07:05:49;;;;;;;40.00;18.23;;;7.60;96.00;;;;;;5098463;27;20121;-65
2022/03/29 07:08:16;;;;;;;42.05;18.17;;;7.60;95.80;;;;;;5109853;27;20424;-66
2022/03/29 07:13:27;;;;;;;44.40;18.60;;;7.70;95.80;;;;;;5094036;28;20425;-66
2022/03/29 07:15:53;;;;;;;44.25;19.55;;;7.80;95.70;;;;;;5092812;28;20047;-66
2022/03/29 07:18:19;;;;;;;38.92;18.63;;;7.90;95.50;;;;;;5093035;28;20050;-66
2022/03/29 07:20:45;;;;;;;44.67;20.10;;;7.90;95.40;;;;;;5092156;28;20389;-66
2022/03/29 07:23:11;;;;;;;44.63;19.13;;;8.00;95.10;;;;;;5109732;28;20056;-66
2022/03/29 07:25:37;;;;;;;43.33;19.92;;;8.10;94.90;;;;;;5095157;28;20042;-66
2022/03/29 07:28:03;;;;;;;43.75;20.92;;;8.00;94.80;;;;;;5106805;27;20122;-66
2022/03/29 07:30:31;;;;;;;47.70;20.95;;;8.00;94.80;;;;;;5105398;28;20038;-66
2022/03/29 07:32:58;;;;;;;39.90;20.25;;;8.10;94.60;;;;;;5091842;28;20130;-66
2022/03/29 07:35:26;;;;;;;43.10;18.83;;;8.10;94.50;;;;;;5091765;28;20133;-66
2022/03/29 07:37:52;;;;;;;44.67;20.58;;;8.20;94.30;;;;;;5107655;27;20041;-66
2022/03/29 07:40:22;;;;;;;47.70;20.50;;;8.20;94.20;;;;;;5101363;28;20527;-66
2022/03/29 07:42:49;;;;;;;45.25;20.58;;;8.10;94.20;;;;;;5091189;27;20098;-66
2022/03/29 07:45:16;;;;;;;47.70;20.52;;;8.20;94.20;;;;;;5093055;28;20051;-66
2022/03/29 07:47:42;;;;;;;44.17;21.42;;;8.20;94.00;;;;;;5107949;28;20057;-66
2022/03/29 07:50:09;;;;;;;43.60;20.20;;;8.30;94.00;;;;;;5091181;28;20039;-66
2022/03/29 07:52:36;;;;;;;44.35;19.33;;;8.30;93.80;;;;;;5099158;28;20755;-66
2022/03/29 07:55:03;;;;;;;42.28;20.25;;;8.30;93.60;;;;;;5091805;28;20206;-67
2022/03/29 07:57:28;;;;;;;41.65;19.30;;;8.40;93.50;;;;;;5098716;28;20560;-66
2022/03/29 07:59:54;;;;;;;38.05;18.45;;;8.40;93.30;;;;;;5101260;28;20031;-66
2022/03/29 08:02:19;;;;;;;41.13;19.40;;;8.40;93.20;;;;;;5108371;27;20042;-66
2022/03/29 08:04:45;;;;;;;42.45;18.30;;;8.50;93.10;;;;;;5125441;27;20071;-66
2022/03/29 08:07:11;;;;;;;35.70;17.80;;;8.50;93.10;;;;;;5096845;28;20043;-66
2022/03/29 08:09:37;;;;;;;35.20;17.65;;;8.60;92.90;;;;;;5108090;28;20108;-65
2022/03/29 08:12:03;;;;;;;41.05;17.65;;;8.70;92.80;;;;;;5104248;28;20059;-65
2022/03/29 08:14:28;;;;;;;40.45;17.95;;;8.80;92.50;;;;;;5108371;28;20043;-66
2022/03/29 08:16:55;;;;;;;36.28;16.70;;;8.90;92.30;;;;;;5103516;28;20050;-66
2022/03/29 08:19:21;;;;;;;38.40;16.60;;;8.90;92.00;;;;;;5106722;28;20035;-66
2022/03/29 08:21:52;;;;;;;34.13;15.77;;;9.00;91.70;;;;;;5106931;28;20050;-68
2022/03/29 08:24:23;;;;;;;31.02;15.95;;;9.00;91.70;;;;;;5089929;28;20135;-66
2022/03/29 08:26:51;;;;;;;35.97;16.10;;;9.10;91.30;;;;;;5110086;28;20073;-66
2022/03/29 08:29:18;;;;;;;38.00;16.50;;;9.20;91.20;;;;;;5075954;28;20463;-66
2022/03/29 08:31:45;;;;;;;38.80;16.73;;;9.30;91.10;;;;;;5091409;28;20046;-66
2022/03/29 08:34:12;;;;;;;31.65;16.45;;;9.40;90.90;;;;;;5087309;28;20042;-66
2022/03/29 08:36:38;;;;;;;38.22;17.45;;;9.30;90.80;;;;;;5103135;28;20513;-66
2022/03/29 08:39:05;;;;;;;29.85;15.27;;;9.50;90.70;;;;;;5073280;28;20145;-66
2022/03/29 08:41:36;;;;;;;38.67;16.50;;;9.50;90.50;;;;;;5093076;28;20056;-66
2022/03/29 08:44:01;;;;;;;;;;;9.50;90.40;;;;;;5110918;28;20063;-66
2022/03/29 08:46:36;;;;;;;32.90;15.75;;;9.60;89.00;;;;;;5105903;28;19919;-66
2022/03/29 08:49:02;;;;;;;37.40;16.70;;;9.70;90.20;;;;;;5075941;28;20485;-67
2022/03/29 08:51:29;;;;;;;37.50;17.73;;;9.80;90.10;;;;;;5101502;28;20036;-67
2022/03/29 08:53:54;;;;;;;36.13;16.38;;;9.80;89.80;;;;;;5117509;28;20027;-66
2022/03/29 08:56:20;;;;;;;34.22;16.50;;;9.90;89.60;;;;;;5101618;28;20364;-66
2022/03/29 08:58:46;;;;;;;34.35;16.30;;;10.00;88.90;;;;;;5080220;28;20107;-66
2022/03/29 09:01:12;;;;;;;33.80;17.50;;;10.10;88.70;;;;;;5093401;28;20100;-66
2022/03/29 09:03:37;;;;;;;32.55;16.63;;;10.20;88.20;;;;;;5092440;28;20036;-66
2022/03/29 09:06:08;;;;;;;33.15;17.15;;;10.10;87.70;;;;;;5096374;28;20073;-66
2022/03/29 09:08:47;;;;;;;37.83;18.48;;;10.10;87.00;;;;;;5094536;27;20047;-66
2022/03/29 09:11:14;;;;;;;38.30;17.70;;;10.10;86.70;;;;;;5103187;27;20131;-69
2022/03/29 09:13:40;;;;;;;41.72;17.83;;;10.00;87.70;;;;;;5078169;28;20042;-66
2022/03/29 09:16:08;;;;;;;37.97;17.83;;;10.00;88.10;;;;;;5101119;27;20039;-66
2022/03/29 09:18:34;;;;;;;36.80;16.75;;;10.00;87.90;;;;;;5104008;28;20084;-66
2022/03/29 09:21:17;;;;;;;36.05;17.25;;;10.00;87.70;;;;;;5111786;27;20054;-66
2022/03/29 09:24:02;;;;;;;35.53;17.55;;;10.10;86.20;;;;;;5113494;27;20146;-66
2022/03/29 09:26:30;;;;;;;40.50;18.95;;;10.10;87.20;;;;;;5094078;27;20142;-67
2022/03/29 09:28:56;;;;;;;42.47;18.98;;;10.00;87.10;;;;;;5095172;28;20062;-66
2022/03/29 09:31:23;;;;;;;36.25;17.77;;;10.00;87.50;;;;;;5094811;27;20035;-67
2022/03/29 09:33:49;;;;;;;37.17;17.67;;;10.00;87.70;;;;;;5094435;28;20043;-67
2022/03/29 09:36:20;;;;;;;39.38;19.38;;;10.00;87.90;;;;;;5094037;27;20387;-66
2022/03/29 09:38:52;;;;;;;;;;;10.00;88.20;;;;;;5130630;27;20416;-66
2022/03/29 09:41:32;;;;;;;38.05;16.90;;;10.10;86.90;;;;;;5103837;28;20006;-66
2022/03/29 09:44:09;;;;;;;31.90;16.85;;;10.20;87.70;;;;;;5109580;27;20454;-67
2022/03/29 09:46:54;;;;;;;38.33;17.48;;;10.40;86.40;;;;;;5115042;27;20174;-67
2022/03/29 09:49:20;;;;;;;39.33;18.10;;;10.40;85.50;;;;;;5101819;27;20066;-67
2022/03/29 09:51:46;;;;;;;36.10;16.75;;;10.50;86.30;;;;;;5095117;28;20070;-67
2022/03/29 09:54:12;;;;;;;36.10;16.60;;;10.50;86.10;;;;;;5080168;27;20070;-67
2022/03/29 09:56:38;;;;;;;34.83;17.63;;;10.60;85.70;;;;;;5107240;27;20074;-67
2022/03/29 09:59:14;;;;;;;37.00;17.80;;;10.60;85.60;;;;;;5098727;28;20514;-67
2022/03/29 10:01:54;;;;;;;35.90;16.83;;;10.70;84.80;;;;;;5094222;27;20462;-67
2022/03/29 10:04:21;;;;;;;37.75;17.45;;;10.80;84.60;;;;;;5102753;27;20074;-67
2022/03/29 10:06:48;;;;;;;39.38;17.58;;;11.10;84.50;;;;;;5109112;27;20035;-67
2022/03/29 10:09:26;;;;;;;36.13;17.23;;;11.20;83.70;;;;;;5084153;27;20213;-67
2022/03/29 10:12:01;;;;;;;35.42;17.55;;;11.40;81.30;;;;;;5106044;27;20463;-67
2022/03/29 10:14:27;;;;;;;33.08;16.20;;;11.40;81.20;;;;;;5114311;27;20515;-67
2022/03/29 10:16:54;;;;;;;33.83;16.10;;;11.40;80.90;;;;;;5098661;28;20043;-67
2022/03/29 10:19:21;;;;;;;28.15;16.35;;;11.40;81.00;;;;;;5097773;27;20039;-67
2022/03/29 10:21:47;;;;;;;32.38;15.85;;;11.40;80.80;;;;;;5100599;28;20070;-67
2022/03/29 10:24:14;;;;;;;32.58;15.48;;;11.60;80.00;;;;;;5096921;27;20081;-67
2022/03/29 10:26:45;;;;;;;32.50;16.08;;;11.70;78.80;;;;;;5106054;27;20042;-68
2022/03/29 10:29:11;;;;;;;28.35;15.68;;;11.70;77.40;;;;;;5110050;28;20391;-68
2022/03/29 10:31:56;;;;;;;33.90;15.73;;;12.10;77.10;;;;;;5094687;28;20112;-68
2022/03/29 10:34:30;;;;;;;33.97;16.42;;;12.20;75.10;;;;;;5095753;27;20054;-67
2022/03/29 10:37:17;;;;;;;27.08;13.63;;;12.50;75.50;;;;;;5106750;28;20114;-67
2022/03/29 10:40:07;;;;;;;31.23;14.88;;;12.40;73.70;;;;;;5111950;27;20035;-68
2022/03/29 10:42:32;;;;;;;29.60;15.38;;;12.40;72.10;;;;;;5090491;27;20031;-68
2022/03/29 10:45:10;;;;;;;29.38;13.25;;;12.30;75.40;;;;;;5095578;27;20046;-68
2022/03/29 10:47:36;;;;;;;31.25;13.88;;;12.40;75.00;;;;;;5112738;27;20527;-67
2022/03/29 10:50:04;;;;;;;32.63;14.27;;;12.60;74.50;;;;;;5109295;27;20480;-67
2022/03/29 10:52:37;;;;;;;35.90;14.63;;;12.70;73.00;;;;;;5110794;27;20043;-67
2022/03/29 10:55:20;;;;;;;29.15;13.40;;;12.90;72.40;;;;;;5094117;27;20070;-67
2022/03/29 10:58:04;;;;;;;27.13;13.75;;;13.10;71.20;;;;;;5092274;27;20130;-68
2022/03/29 11:00:31;;;;;;;25.77;13.38;;;13.20;70.00;;;;;;5113030;27;20571;-67
2022/03/29 11:03:23;;;;;;;25.70;13.70;;;13.30;71.70;;;;;;5108960;27;20145;-67
2022/03/29 11:06:11;;;;;;;28.60;13.60;;;13.40;68.60;;;;;;5108200;27;20031;-69
2022/03/29 11:08:41;;;;;;;27.10;14.10;;;13.60;66.80;;;;;;5125208;27;20171;-67
2022/03/29 11:11:08;;;;;;;22.60;12.98;;;13.70;68.80;;;;;;5107598;27;20100;-68
2022/03/29 11:13:37;;;;;;;27.80;12.68;;;13.90;68.40;;;;;;5086685;27;20042;-68
2022/03/29 11:16:30;;;;;;;24.02;12.18;;;14.10;67.80;;;;;;5085562;27;20035;-68
2022/03/29 11:18:56;;;;;;;23.05;12.48;;;14.10;64.80;;;;;;5106321;27;20048;-68
2022/03/29 11:21:47;;;;;;;25.60;12.75;;;14.00;67.70;;;;;;5102810;27;20071;-67
2022/03/29 11:24:13;;;;;;;28.38;12.48;;;13.60;66.50;;;;;;5100769;27;20208;-67
2022/03/29 11:26:53;;;;;;;30.98;12.70;;;13.50;68.10;;;;;;5105184;27;20045;-67
2022/03/29 11:29:19;;;;;;;27.65;12.65;;;13.40;66.60;;;;;;5099274;27;20031;-68
2022/03/29 11:31:45;;;;;;;24.00;11.35;;;13.30;68.60;;;;;;5097418;27;20046;-68
2022/03/29 11:34:11;;;;;;;20.85;10.90;;;13.20;68.70;;;;;;5106863;27;20039;-68
2022/03/29 11:36:40;;;;;;;25.83;12.02;;;13.60;68.20;;;;;;5089772;27;20027;-67
2022/03/29 11:39:26;;;;;;;25.23;11.73;;;13.80;66.90;;;;;;5108469;27;20106;-68
2022/03/29 11:41:54;;;;;;;23.05;10.95;;;13.70;63.40;;;;;;5082536;28;20089;-68
2022/03/29 11:44:21;;;;;;;27.00;10.68;;;13.70;66.20;;;;;;5083183;27;20408;-67
2022/03/29 11:46:49;;;;;;;26.40;10.02;;;13.60;66.60;;;;;;5110817;27;20038;-67
2022/03/29 11:49:20;;;;;;;23.25;10.55;;;14.00;65.90;;;;;;5099867;28;20058;-67
2022/03/29 11:52:21;;;;;;;20.83;10.70;;;13.90;65.90;;;;;;5108457;27;20087;-67
2022/03/29 11:54:51;;;;;;;21.70;9.60;;;13.90;64.40;;;;;;5039756;28;20036;-66
2022/03/29 11:57:20;;;;;;;21.08;9.52;;;13.90;65.30;;;;;;5094130;27;20055;-66
2022/03/29 11:59:47;;;;;;;21.73;10.10;;;14.10;65.10;;;;;;5112983;27;20398;-67
2022/03/29 12:02:13;;;;;;;24.58;9.93;;;14.00;64.70;;;;;;5109508;28;20084;-68
2022/03/29 12:04:39;;;;;;;20.80;10.02;;;13.80;64.40;;;;;;5091922;28;20381;-67
2022/03/29 12:07:05;;;;;;;23.20;9.75;;;13.60;64.50;;;;;;5111835;28;20428;-68
2022/03/29 12:09:31;;;;;;;23.00;10.93;;;13.60;64.80;;;;;;5107081;28;20066;-68
2022/03/29 12:12:03;;;;;;;20.85;9.73;;;13.60;64.50;;;;;;5109766;28;20393;-71
2022/03/29 12:14:31;;;;;;;20.02;9.13;;;13.70;63.70;;;;;;5098870;28;20044;-67
2022/03/29 12:17:03;;;;;;;20.08;9.25;;;13.70;64.30;;;;;;5111696;28;20106;-67
2022/03/29 12:19:30;;;;;;;20.70;10.10;;;14.00;63.90;;;;;;5093269;28;20433;-68
2022/03/29 12:22:05;;;;;;;23.30;9.75;;;14.10;63.30;;;;;;5105369;28;20193;-67
2022/03/29 12:24:34;;;;;;;18.02;9.82;;;14.20;61.60;;;;;;5092671;28;20044;-68
2022/03/29 12:27:06;;;;;;;20.73;10.10;;;14.20;62.50;;;;;;5091840;28;20121;-68
2022/03/29 12:29:38;;;;;;;21.33;8.80;;;14.30;62.90;;;;;;5123827;28;20288;-68
2022/03/29 12:32:05;;;;;;;19.02;8.80;;;14.50;62.40;;;;;;5103706;28;20087;-67
2022/03/29 12:34:32;;;;;;;19.65;8.98;;;14.60;62.00;;;;;;5113413;28;20068;-67
2022/03/29 12:37:01;;;;;;;22.73;9.43;;;14.30;61.90;;;;;;5098514;28;20496;-67
2022/03/29 12:39:40;;;;;;;20.27;9.05;;;14.40;61.70;;;;;;5111656;28;20100;-67
2022/03/29 12:42:14;;;;;;;19.45;8.88;;;14.40;60.20;;;;;;5108671;27;20043;-66
2022/03/29 12:44:52;;;;;;;22.65;8.80;;;14.50;60.50;;;;;;5097271;27;20523;-67
2022/03/29 12:47:18;;;;;;;21.27;9.13;;;14.60;59.90;;;;;;5090845;28;20483;-67